sensor_id;sensor_type;location;lat;lon;timestamp;noise_LAeq;noise_LA_min;noise_LA_max;noise_LA01;noise_LA95
70740;Laerm;58330;51.888;11.052;2023-10-09T00:01:02;31.14;29.60;32.21;;
70740;Laerm;58330;51.888;11.052;2023-10-09T00:03:30;31.14;29.86;32.48;;
70740;Laerm;58330;51.888;11.052;2023-10-09T00:05:57;31.13;29.92;32.17;;
70740;Laerm;58330;51.888;11.052;2023-10-09T00:08:24;31.15;29.95;32.26;;
70740;Laerm;58330;51.888;11.052;2023-10-09T00:10:55;31.09;29.78;32.21;;
70740;Laerm;58330;51.888;11.052;2023-10-09T00:13:22;31.11;29.93;32.18;;
70740;Laerm;58330;51.888;11.052;2023-10-09T00:15:54;31.11;29.85;32.51;;
70740;Laerm;58330;51.888;11.052;2023-10-09T00:18:25;49.17;29.83;85.50;;
70740;Laerm;58330;51.888;11.052;2023-10-09T00:20:55;31.12;29.73;32.21;;
70740;Laerm;58330;51.888;11.052;2023-10-09T00:23:26;31.11;29.87;32.35;;
70740;Laerm;58330;51.888;11.052;2023-10-09T00:25:52;31.13;30.01;32.22;;
70740;Laerm;58330;51.888;11.052;2023-10-09T00:28:34;31.12;29.83;32.29;;
70740;Laerm;58330;51.888;11.052;2023-10-09T00:31:02;31.14;29.97;32.21;;
70740;Laerm;58330;51.888;11.052;2023-10-09T00:33:31;31.12;29.90;32.38;;
70740;Laerm;58330;51.888;11.052;2023-10-09T00:36:01;31.14;29.92;32.60;;
70740;Laerm;58330;51.888;11.052;2023-10-09T00:38:34;31.12;29.85;32.38;;
70740;Laerm;58330;51.888;11.052;2023-10-09T00:41:03;31.16;29.69;32.59;;
70740;Laerm;58330;51.888;11.052;2023-10-09T00:43:35;31.15;29.42;32.40;;
70740;Laerm;58330;51.888;11.052;2023-10-09T00:46:04;31.14;29.79;32.21;;
70740;Laerm;58330;51.888;11.052;2023-10-09T00:48:37;31.15;29.73;32.47;;
70740;Laerm;58330;51.888;11.052;2023-10-09T00:51:06;31.18;29.80;32.30;;
70740;Laerm;58330;51.888;11.052;2023-10-09T00:53:42;31.17;29.98;32.44;;
70740;Laerm;58330;51.888;11.052;2023-10-09T00:56:10;31.17;30.01;32.58;;
70740;Laerm;58330;51.888;11.052;2023-10-09T00:58:44;31.17;29.98;32.23;;
70740;Laerm;58330;51.888;11.052;2023-10-09T01:01:13;31.16;29.87;32.35;;
70740;Laerm;58330;51.888;11.052;2023-10-09T01:03:41;31.16;29.94;32.28;;
70740;Laerm;58330;51.888;11.052;2023-10-09T01:06:09;31.15;29.64;32.36;;
70740;Laerm;58330;51.888;11.052;2023-10-09T01:08:46;31.15;29.63;32.33;;
70740;Laerm;58330;51.888;11.052;2023-10-09T01:11:33;31.15;29.74;32.50;;
70740;Laerm;58330;51.888;11.052;2023-10-09T01:14:12;31.15;29.88;32.25;;
70740;Laerm;58330;51.888;11.052;2023-10-09T01:16:40;31.15;29.99;32.23;;
70740;Laerm;58330;51.888;11.052;2023-10-09T01:19:11;31.17;30.02;32.42;;
70740;Laerm;58330;51.888;11.052;2023-10-09T01:21:49;31.20;29.97;32.52;;
70740;Laerm;58330;51.888;11.052;2023-10-09T01:24:17;31.25;29.92;32.77;;
70740;Laerm;58330;51.888;11.052;2023-10-09T01:26:46;31.25;29.87;32.47;;
70740;Laerm;58330;51.888;11.052;2023-10-09T01:29:15;31.26;30.13;32.43;;
70740;Laerm;58330;51.888;11.052;2023-10-09T01:31:42;31.24;30.02;32.41;;
70740;Laerm;58330;51.888;11.052;2023-10-09T01:34:17;31.24;29.97;32.47;;
70740;Laerm;58330;51.888;11.052;2023-10-09T01:36:44;31.25;29.65;32.39;;
70740;Laerm;58330;51.888;11.052;2023-10-09T01:39:14;31.25;30.02;32.34;;
70740;Laerm;58330;51.888;11.052;2023-10-09T01:41:50;31.24;29.76;32.54;;
70740;Laerm;58330;51.888;11.052;2023-10-09T01:44:23;31.24;30.02;32.46;;
70740;Laerm;58330;51.888;11.052;2023-10-09T01:46:51;31.23;30.02;32.36;;
70740;Laerm;58330;51.888;11.052;2023-10-09T01:49:19;31.25;30.03;32.63;;
70740;Laerm;58330;51.888;11.052;2023-10-09T01:51:54;31.23;29.99;32.53;;
70740;Laerm;58330;51.888;11.052;2023-10-09T01:54:25;31.22;30.07;32.46;;
70740;Laerm;58330;51.888;11.052;2023-10-09T01:57:03;31.25;29.97;32.46;;
70740;Laerm;58330;51.888;11.052;2023-10-09T01:59:36;31.27;30.09;32.38;;
70740;Laerm;58330;51.888;11.052;2023-10-09T02:02:08;31.24;30.00;32.49;;
70740;Laerm;58330;51.888;11.052;2023-10-09T02:04:59;37.27;-324.33;73.47;;
70740;Laerm;58330;51.888;11.052;2023-10-09T02:07:34;5.00;5.00;5.00;;
70740;Laerm;58330;51.888;11.052;2023-10-09T02:10:06;5.00;5.00;5.00;;
70740;Laerm;58330;51.888;11.052;2023-10-09T02:12:38;5.00;5.00;5.00;;
70740;Laerm;58330;51.888;11.052;2023-10-09T02:15:06;5.00;5.00;5.00;;
70740;Laerm;58330;51.888;11.052;2023-10-09T02:17:40;5.00;5.00;5.00;;
70740;Laerm;58330;51.888;11.052;2023-10-09T02:20:17;5.00;5.00;5.00;;
70740;Laerm;58330;51.888;11.052;2023-10-09T02:22:53;5.00;5.00;5.00;;
70740;Laerm;58330;51.888;11.052;2023-10-09T02:25:23;5.00;5.00;5.00;;
70740;Laerm;58330;51.888;11.052;2023-10-09T02:27:55;5.00;5.00;5.00;;
70740;Laerm;58330;51.888;11.052;2023-10-09T02:30:24;5.00;5.00;5.00;;
70740;Laerm;58330;51.888;11.052;2023-10-09T02:32:53;5.00;5.00;5.00;;
70740;Laerm;58330;51.888;11.052;2023-10-09T02:35:31;5.00;5.00;5.00;;
70740;Laerm;58330;51.888;11.052;2023-10-09T02:38:02;5.00;5.00;5.00;;
70740;Laerm;58330;51.888;11.052;2023-10-09T02:40:31;5.00;5.00;5.00;;
70740;Laerm;58330;51.888;11.052;2023-10-09T02:43:06;5.00;5.00;5.00;;
70740;Laerm;58330;51.888;11.052;2023-10-09T02:45:38;5.00;5.00;5.00;;
70740;Laerm;58330;51.888;11.052;2023-10-09T02:48:16;5.00;5.00;5.00;;
70740;Laerm;58330;51.888;11.052;2023-10-09T02:50:45;5.00;5.00;5.00;;
70740;Laerm;58330;51.888;11.052;2023-10-09T02:53:12;5.00;5.00;5.00;;
70740;Laerm;58330;51.888;11.052;2023-10-09T02:55:43;5.00;5.00;5.00;;
70740;Laerm;58330;51.888;11.052;2023-10-09T02:58:28;5.00;5.00;5.00;;
70740;Laerm;58330;51.888;11.052;2023-10-09T03:00:57;5.00;5.00;5.00;;
70740;Laerm;58330;51.888;11.052;2023-10-09T03:03:23;5.00;5.00;5.00;;
70740;Laerm;58330;51.888;11.052;2023-10-09T03:05:50;5.00;5.00;5.00;;
70740;Laerm;58330;51.888;11.052;2023-10-09T03:08:16;5.00;5.00;5.00;;
70740;Laerm;58330;51.888;11.052;2023-10-09T03:10:44;5.00;5.00;5.00;;
70740;Laerm;58330;51.888;11.052;2023-10-09T03:13:10;5.00;5.00;5.00;;
70740;Laerm;58330;51.888;11.052;2023-10-09T03:15:41;5.00;5.00;5.00;;
70740;Laerm;58330;51.888;11.052;2023-10-09T03:18:07;5.00;5.00;5.00;;
70740;Laerm;58330;51.888;11.052;2023-10-09T03:20:34;5.00;5.00;5.00;;
70740;Laerm;58330;51.888;11.052;2023-10-09T03:23:02;5.00;5.00;5.00;;
70740;Laerm;58330;51.888;11.052;2023-10-09T03:25:29;5.00;5.00;5.00;;
70740;Laerm;58330;51.888;11.052;2023-10-09T03:27:55;5.00;5.00;5.00;;
70740;Laerm;58330;51.888;11.052;2023-10-09T03:30:24;5.00;5.00;5.00;;
70740;Laerm;58330;51.888;11.052;2023-10-09T03:32:52;5.00;5.00;5.00;;
70740;Laerm;58330;51.888;11.052;2023-10-09T03:35:19;5.00;5.00;5.00;;
70740;Laerm;58330;51.888;11.052;2023-10-09T03:37:51;5.00;5.00;5.00;;
70740;Laerm;58330;51.888;11.052;2023-10-09T03:40:22;5.00;5.00;5.00;;
70740;Laerm;58330;51.888;11.052;2023-10-09T03:42:48;5.00;5.00;5.00;;
70740;Laerm;58330;51.888;11.052;2023-10-09T03:45:15;5.00;5.00;5.00;;
70740;Laerm;58330;51.888;11.052;2023-10-09T03:47:52;5.00;5.00;5.00;;
70740;Laerm;58330;51.888;11.052;2023-10-09T03:50:23;5.00;5.00;5.00;;
70740;Laerm;58330;51.888;11.052;2023-10-09T03:53:00;5.00;5.00;5.00;;
70740;Laerm;58330;51.888;11.052;2023-10-09T03:55:27;5.00;5.00;5.00;;
70740;Laerm;58330;51.888;11.052;2023-10-09T03:57:54;5.00;5.00;5.00;;
70740;Laerm;58330;51.888;11.052;2023-10-09T04:00:23;5.00;5.00;5.00;;
70740;Laerm;58330;51.888;11.052;2023-10-09T04:02:55;5.00;5.00;5.00;;
70740;Laerm;58330;51.888;11.052;2023-10-09T04:05:22;5.00;5.00;5.00;;
70740;Laerm;58330;51.888;11.052;2023-10-09T04:07:50;5.00;5.00;5.00;;
70740;Laerm;58330;51.888;11.052;2023-10-09T04:10:19;5.00;5.00;5.00;;
70740;Laerm;58330;51.888;11.052;2023-10-09T04:13:16;5.00;5.00;5.00;;
70740;Laerm;58330;51.888;11.052;2023-10-09T04:15:43;5.00;5.00;5.00;;
70740;Laerm;58330;51.888;11.052;2023-10-09T04:18:11;5.00;5.00;5.00;;
70740;Laerm;58330;51.888;11.052;2023-10-09T04:20:41;5.00;5.00;5.00;;
70740;Laerm;58330;51.888;11.052;2023-10-09T04:23:33;5.00;5.00;5.00;;
70740;Laerm;58330;51.888;11.052;2023-10-09T04:26:00;5.00;5.00;5.00;;
70740;Laerm;58330;51.888;11.052;2023-10-09T04:28:36;5.00;5.00;5.00;;
70740;Laerm;58330;51.888;11.052;2023-10-09T04:31:02;5.00;5.00;5.00;;
70740;Laerm;58330;51.888;11.052;2023-10-09T04:33:33;5.00;5.00;5.00;;
70740;Laerm;58330;51.888;11.052;2023-10-09T04:36:08;98.68;-8.38;113.02;;
70740;Laerm;58330;51.888;11.052;2023-10-09T04:38:54;86.32;-130.98;96.72;;
70740;Laerm;58330;51.888;11.052;2023-10-09T04:41:40;76.41;-331.32;95.17;;
70740;Laerm;58330;51.888;11.052;2023-10-09T04:44:17;63.02;-334.33;86.53;;
70740;Laerm;58330;51.888;11.052;2023-10-09T04:46:44;62.77;-328.31;87.38;;
70740;Laerm;58330;51.888;11.052;2023-10-09T04:49:25;66.26;-334.33;88.78;;
70740;Laerm;58330;51.888;11.052;2023-10-09T04:51:52;64.67;-334.33;88.77;;
70740;Laerm;58330;51.888;11.052;2023-10-09T04:54:29;68.72;-327.34;90.19;;
70740;Laerm;58330;51.888;11.052;2023-10-09T04:57:04;78.13;-309.14;96.05;;
70740;Laerm;58330;51.888;11.052;2023-10-09T04:59:43;82.35;-326.54;97.23;;
70740;Laerm;58330;51.888;11.052;2023-10-09T05:02:13;61.08;-331.32;87.82;;
70740;Laerm;58330;51.888;11.052;2023-10-09T05:04:46;52.19;-334.33;81.55;;
70740;Laerm;58330;51.888;11.052;2023-10-09T05:07:16;75.02;-325.88;91.86;;
70740;Laerm;58330;51.888;11.052;2023-10-09T05:10:11;83.65;-325.30;97.53;;
70740;Laerm;58330;51.888;11.052;2023-10-09T05:12:41;76.03;-334.33;95.70;;
70740;Laerm;58330;51.888;11.052;2023-10-09T05:15:12;66.82;-328.31;90.99;;
70740;Laerm;58330;51.888;11.052;2023-10-09T05:17:38;81.40;-323.53;96.71;;
70740;Laerm;58330;51.888;11.052;2023-10-09T05:20:12;79.41;-328.31;94.26;;
70740;Laerm;58330;51.888;11.052;2023-10-09T05:22:56;85.13;-325.88;97.40;;
70740;Laerm;58330;51.888;11.052;2023-10-09T05:25:45;83.87;-323.91;95.63;;
70740;Laerm;58330;51.888;11.052;2023-10-09T05:28:23;18.98;-328.31;55.39;;
70740;Laerm;58330;51.888;11.052;2023-10-09T05:31:13;49.32;-331.32;75.75;;
70740;Laerm;58330;51.888;11.052;2023-10-09T05:34:01;76.25;-62.96;91.70;;
70740;Laerm;58330;51.888;11.052;2023-10-09T05:39:16;86.20;13.47;95.10;;
70740;Laerm;58330;51.888;11.052;2023-10-09T05:41:47;86.68;12.36;97.34;;
70740;Laerm;58330;51.888;11.052;2023-10-09T05:47:20;72.30;-323.91;88.55;;
70740;Laerm;58330;51.888;11.052;2023-10-09T05:50:00;5.00;5.00;5.00;;
70740;Laerm;58330;51.888;11.052;2023-10-09T05:52:45;5.00;5.00;5.00;;
70740;Laerm;58330;51.888;11.052;2023-10-09T05:55:34;5.00;5.00;5.00;;
70740;Laerm;58330;51.888;11.052;2023-10-09T05:58:29;5.00;5.00;5.00;;
70740;Laerm;58330;51.888;11.052;2023-10-09T06:01:15;5.00;5.00;5.00;;
70740;Laerm;58330;51.888;11.052;2023-10-09T06:04:00;5.00;5.00;5.00;;
70740;Laerm;58330;51.888;11.052;2023-10-09T06:06:40;5.00;5.00;5.00;;
70740;Laerm;58330;51.888;11.052;2023-10-09T06:09:10;11.19;-329.56;43.96;;
70740;Laerm;58330;51.888;11.052;2023-10-09T06:12:00;74.98;-329.56;89.54;;
70740;Laerm;58330;51.888;11.052;2023-10-09T06:14:44;43.77;-331.32;73.56;;
70740;Laerm;58330;51.888;11.052;2023-10-09T06:17:43;5.00;5.00;5.00;;
70740;Laerm;58330;51.888;11.052;2023-10-09T06:20:09;5.00;5.00;5.00;;
70740;Laerm;58330;51.888;11.052;2023-10-09T06:23:05;85.79;-328.31;97.15;;
70740;Laerm;58330;51.888;11.052;2023-10-09T06:25:42;92.51;5.76;108.08;;
70740;Laerm;58330;51.888;11.052;2023-10-09T06:28:18;98.83;13.58;112.34;;
70740;Laerm;58330;51.888;11.052;2023-10-09T06:34:13;105.84;34.76;112.58;;
70740;Laerm;58330;51.888;11.052;2023-10-09T06:36:42;101.11;-101.29;112.39;;
70740;Laerm;58330;51.888;11.052;2023-10-09T06:39:18;99.22;-138.25;113.39;;
70740;Laerm;58330;51.888;11.052;2023-10-09T06:42:02;104.10;-289.29;113.23;;
70740;Laerm;58330;51.888;11.052;2023-10-09T06:44:56;4.98;-329.56;5.00;;
70740;Laerm;58330;51.888;11.052;2023-10-09T06:47:26;5.00;5.00;5.00;;
70740;Laerm;58330;51.888;11.052;2023-10-09T06:49:53;5.00;5.00;5.00;;
70740;Laerm;58330;51.888;11.052;2023-10-09T06:52:33;5.00;5.00;5.00;;
70740;Laerm;58330;51.888;11.052;2023-10-09T06:58:03;5.00;5.00;5.00;;
70740;Laerm;58330;51.888;11.052;2023-10-09T07:00:39;4.87;-329.56;5.00;;
70740;Laerm;58330;51.888;11.052;2023-10-09T07:03:30;4.89;-325.30;5.00;;
70740;Laerm;58330;51.888;11.052;2023-10-09T07:06:04;62.78;-325.30;99.09;;
70740;Laerm;58330;51.888;11.052;2023-10-09T07:08:35;5.00;5.00;5.00;;
70740;Laerm;58330;51.888;11.052;2023-10-09T07:20:13;5.00;5.00;5.00;;
70740;Laerm;58330;51.888;11.052;2023-10-09T07:22:43;5.00;5.00;5.00;;
70740;Laerm;58330;51.888;11.052;2023-10-09T07:25:40;5.00;5.00;5.00;;
70740;Laerm;58330;51.888;11.052;2023-10-09T07:28:30;5.00;5.00;5.00;;
70740;Laerm;58330;51.888;11.052;2023-10-09T07:37:19;5.00;5.00;5.00;;
70740;Laerm;58330;51.888;11.052;2023-10-09T07:39:49;5.00;5.00;5.00;;
70740;Laerm;58330;51.888;11.052;2023-10-09T07:42:23;5.00;5.00;5.00;;
70740;Laerm;58330;51.888;11.052;2023-10-09T07:45:11;5.00;5.00;5.00;;
70740;Laerm;58330;51.888;11.052;2023-10-09T07:47:59;5.00;5.00;5.00;;
70740;Laerm;58330;51.888;11.052;2023-10-09T07:50:34;5.00;5.00;5.00;;
70740;Laerm;58330;51.888;11.052;2023-10-09T07:53:10;5.00;5.00;5.00;;
70740;Laerm;58330;51.888;11.052;2023-10-09T08:01:25;5.00;5.00;5.00;;
70740;Laerm;58330;51.888;11.052;2023-10-09T08:04:00;5.00;5.00;5.00;;
70740;Laerm;58330;51.888;11.052;2023-10-09T08:06:30;5.00;5.00;5.00;;
70740;Laerm;58330;51.888;11.052;2023-10-09T08:09:11;5.00;5.00;5.00;;
70740;Laerm;58330;51.888;11.052;2023-10-09T08:11:45;5.00;5.00;5.00;;
70740;Laerm;58330;51.888;11.052;2023-10-09T08:15:06;5.00;5.00;5.00;;
70740;Laerm;58330;51.888;11.052;2023-10-09T08:17:46;5.00;5.00;5.00;;
70740;Laerm;58330;51.888;11.052;2023-10-09T08:20:16;5.00;5.00;5.00;;
70740;Laerm;58330;51.888;11.052;2023-10-09T08:22:43;5.00;5.00;5.00;;
70740;Laerm;58330;51.888;11.052;2023-10-09T08:25:18;5.00;5.00;5.00;;
70740;Laerm;58330;51.888;11.052;2023-10-09T08:28:02;5.00;5.00;5.00;;
70740;Laerm;58330;51.888;11.052;2023-10-09T08:30:47;5.00;5.00;5.00;;
70740;Laerm;58330;51.888;11.052;2023-10-09T08:33:28;5.00;5.00;5.00;;
70740;Laerm;58330;51.888;11.052;2023-10-09T08:36:09;5.00;5.00;5.00;;
70740;Laerm;58330;51.888;11.052;2023-10-09T08:38:40;5.00;5.00;5.00;;
70740;Laerm;58330;51.888;11.052;2023-10-09T08:41:12;5.00;5.00;5.00;;
70740;Laerm;58330;51.888;11.052;2023-10-09T08:46:52;5.00;5.00;5.00;;
70740;Laerm;58330;51.888;11.052;2023-10-09T08:52:10;5.00;5.00;5.00;;
70740;Laerm;58330;51.888;11.052;2023-10-09T08:54:38;5.00;5.00;5.00;;
70740;Laerm;58330;51.888;11.052;2023-10-09T08:57:06;5.00;5.00;5.00;;
70740;Laerm;58330;51.888;11.052;2023-10-09T08:59:39;5.00;5.00;5.00;;
70740;Laerm;58330;51.888;11.052;2023-10-09T09:02:07;5.00;5.00;5.00;;
70740;Laerm;58330;51.888;11.052;2023-10-09T09:04:40;5.00;5.00;5.00;;
70740;Laerm;58330;51.888;11.052;2023-10-09T09:07:23;5.00;5.00;5.00;;
70740;Laerm;58330;51.888;11.052;2023-10-09T09:09:54;5.00;5.00;5.00;;
70740;Laerm;58330;51.888;11.052;2023-10-09T09:18:20;5.00;5.00;5.00;;
70740;Laerm;58330;51.888;11.052;2023-10-09T09:26:44;5.00;5.00;5.00;;
70740;Laerm;58330;51.888;11.052;2023-10-09T09:29:45;5.00;5.00;5.00;;
70740;Laerm;58330;51.888;11.052;2023-10-09T09:32:27;5.00;5.00;5.00;;
70740;Laerm;58330;51.888;11.052;2023-10-09T09:35:02;5.00;5.00;5.00;;
70740;Laerm;58330;51.888;11.052;2023-10-09T09:37:30;5.00;5.00;5.00;;
70740;Laerm;58330;51.888;11.052;2023-10-09T09:40:04;5.00;5.00;5.00;;
70740;Laerm;58330;51.888;11.052;2023-10-09T09:42:40;5.00;5.00;5.00;;
70740;Laerm;58330;51.888;11.052;2023-10-09T09:47:57;5.00;5.00;5.00;;
70740;Laerm;58330;51.888;11.052;2023-10-09T09:50:32;5.00;5.00;5.00;;
70740;Laerm;58330;51.888;11.052;2023-10-09T09:53:09;25.27;-188.96;41.94;;
70740;Laerm;58330;51.888;11.052;2023-10-09T09:55:44;6.15;-331.32;31.19;;
70740;Laerm;58330;51.888;11.052;2023-10-09T09:58:17;10.34;-334.33;37.60;;
70740;Laerm;58330;51.888;11.052;2023-10-09T10:00:48;9.76;-328.31;36.84;;
70740;Laerm;58330;51.888;11.052;2023-10-09T10:03:23;8.17;-334.33;34.84;;
70740;Laerm;58330;51.888;11.052;2023-10-09T10:05:52;5.95;-334.33;30.63;;
70740;Laerm;58330;51.888;11.052;2023-10-09T10:11:07;104.51;-328.31;112.23;;
70740;Laerm;58330;51.888;11.052;2023-10-09T10:13:54;107.10;33.57;112.12;;
70740;Laerm;58330;51.888;11.052;2023-10-09T10:16:24;107.14;51.11;111.87;;
70740;Laerm;58330;51.888;11.052;2023-10-09T10:19:00;107.06;32.81;111.83;;
70740;Laerm;58330;51.888;11.052;2023-10-09T10:24:49;106.57;28.24;114.23;;
70740;Laerm;58330;51.888;11.052;2023-10-09T10:27:20;93.31;27.51;110.25;;
70740;Laerm;58330;51.888;11.052;2023-10-09T10:35:22;28.79;27.49;30.09;;
70740;Laerm;58330;51.888;11.052;2023-10-09T10:37:57;28.79;27.75;29.82;;
70740;Laerm;58330;51.888;11.052;2023-10-09T10:40:39;28.78;27.53;30.10;;
70740;Laerm;58330;51.888;11.052;2023-10-09T10:43:07;89.23;20.58;111.29;;
70740;Laerm;58330;51.888;11.052;2023-10-09T10:45:38;74.24;-324.78;102.50;;
70740;Laerm;58330;51.888;11.052;2023-10-09T10:48:10;5.00;5.00;5.00;;
70740;Laerm;58330;51.888;11.052;2023-10-09T10:50:48;4.91;-328.31;22.89;;
70740;Laerm;58330;51.888;11.052;2023-10-09T10:53:22;5.00;5.00;5.00;;
70740;Laerm;58330;51.888;11.052;2023-10-09T10:56:02;5.00;5.00;5.00;;
70740;Laerm;58330;51.888;11.052;2023-10-09T10:58:43;5.00;5.00;5.00;;
70740;Laerm;58330;51.888;11.052;2023-10-09T11:04:40;5.00;5.00;5.00;;
70740;Laerm;58330;51.888;11.052;2023-10-09T11:07:21;5.00;5.00;5.00;;
70740;Laerm;58330;51.888;11.052;2023-10-09T11:13:01;5.00;5.00;5.00;;
70740;Laerm;58330;51.888;11.052;2023-10-09T11:15:46;5.00;5.00;5.00;;
70740;Laerm;58330;51.888;11.052;2023-10-09T11:18:21;5.00;5.00;5.00;;
70740;Laerm;58330;51.888;11.052;2023-10-09T11:24:07;5.00;5.00;5.00;;
70740;Laerm;58330;51.888;11.052;2023-10-09T11:26:51;5.00;5.00;5.00;;
70740;Laerm;58330;51.888;11.052;2023-10-09T11:29:23;5.00;5.00;5.00;;
70740;Laerm;58330;51.888;11.052;2023-10-09T11:31:59;5.00;5.00;5.00;;
70740;Laerm;58330;51.888;11.052;2023-10-09T11:34:28;5.00;5.00;5.00;;
70740;Laerm;58330;51.888;11.052;2023-10-09T11:36:57;5.00;5.00;5.00;;
70740;Laerm;58330;51.888;11.052;2023-10-09T11:39:25;5.00;5.00;5.00;;
70740;Laerm;58330;51.888;11.052;2023-10-09T11:42:05;5.00;5.00;5.00;;
70740;Laerm;58330;51.888;11.052;2023-10-09T11:44:39;5.00;5.00;5.00;;
70740;Laerm;58330;51.888;11.052;2023-10-09T11:47:05;22.16;-329.56;40.86;;
70740;Laerm;58330;51.888;11.052;2023-10-09T11:49:49;4.25;-329.56;25.50;;
70740;Laerm;58330;51.888;11.052;2023-10-09T11:52:21;5.00;5.00;5.00;;
70740;Laerm;58330;51.888;11.052;2023-10-09T11:55:03;5.00;5.00;5.00;;
70740;Laerm;58330;51.888;11.052;2023-10-09T11:57:31;5.00;5.00;5.00;;
70740;Laerm;58330;51.888;11.052;2023-10-09T12:00:00;5.00;5.00;5.00;;
70740;Laerm;58330;51.888;11.052;2023-10-09T12:02:33;7.37;-334.33;35.30;;
70740;Laerm;58330;51.888;11.052;2023-10-09T12:05:09;5.00;5.00;5.00;;
70740;Laerm;58330;51.888;11.052;2023-10-09T12:07:42;5.00;5.00;5.00;;
70740;Laerm;58330;51.888;11.052;2023-10-09T12:10:09;5.00;5.00;5.00;;
70740;Laerm;58330;51.888;11.052;2023-10-09T12:12:37;5.00;5.00;5.00;;
70740;Laerm;58330;51.888;11.052;2023-10-09T12:15:06;5.00;5.00;5.00;;
70740;Laerm;58330;51.888;11.052;2023-10-09T12:17:38;5.00;5.00;5.00;;
70740;Laerm;58330;51.888;11.052;2023-10-09T12:20:09;5.00;5.00;5.00;;
70740;Laerm;58330;51.888;11.052;2023-10-09T12:22:40;5.00;5.00;5.00;;
70740;Laerm;58330;51.888;11.052;2023-10-09T12:25:07;5.00;5.00;5.00;;
70740;Laerm;58330;51.888;11.052;2023-10-09T12:27:36;5.00;5.00;5.00;;
70740;Laerm;58330;51.888;11.052;2023-10-09T12:30:03;5.00;5.00;5.00;;
70740;Laerm;58330;51.888;11.052;2023-10-09T12:32:32;5.00;5.00;5.00;;
70740;Laerm;58330;51.888;11.052;2023-10-09T12:35:03;5.00;5.00;5.00;;
70740;Laerm;58330;51.888;11.052;2023-10-09T12:37:42;5.00;5.00;5.00;;
70740;Laerm;58330;51.888;11.052;2023-10-09T12:40:09;5.00;5.00;5.00;;
70740;Laerm;58330;51.888;11.052;2023-10-09T12:42:36;5.00;5.00;5.00;;
70740;Laerm;58330;51.888;11.052;2023-10-09T12:45:03;5.00;5.00;5.00;;
70740;Laerm;58330;51.888;11.052;2023-10-09T12:47:35;5.00;5.00;5.00;;
70740;Laerm;58330;51.888;11.052;2023-10-09T12:50:03;5.00;5.00;5.00;;
70740;Laerm;58330;51.888;11.052;2023-10-09T12:52:37;5.00;5.00;5.00;;
70740;Laerm;58330;51.888;11.052;2023-10-09T12:55:03;5.00;5.00;5.00;;
70740;Laerm;58330;51.888;11.052;2023-10-09T12:57:35;5.00;5.00;5.00;;
70740;Laerm;58330;51.888;11.052;2023-10-09T13:00:02;5.00;5.00;5.00;;
70740;Laerm;58330;51.888;11.052;2023-10-09T13:02:38;5.00;5.00;5.00;;
70740;Laerm;58330;51.888;11.052;2023-10-09T13:05:08;5.00;5.00;5.00;;
70740;Laerm;58330;51.888;11.052;2023-10-09T13:07:50;5.00;5.00;5.00;;
70740;Laerm;58330;51.888;11.052;2023-10-09T13:10:16;5.00;5.00;5.00;;
70740;Laerm;58330;51.888;11.052;2023-10-09T13:12:43;5.00;5.00;5.00;;
70740;Laerm;58330;51.888;11.052;2023-10-09T13:15:10;5.00;5.00;5.00;;
70740;Laerm;58330;51.888;11.052;2023-10-09T13:17:38;5.00;5.00;5.00;;
70740;Laerm;58330;51.888;11.052;2023-10-09T13:20:05;5.00;5.00;5.00;;
70740;Laerm;58330;51.888;11.052;2023-10-09T13:22:37;5.00;5.00;5.00;;
70740;Laerm;58330;51.888;11.052;2023-10-09T13:25:04;5.00;5.00;5.00;;
70740;Laerm;58330;51.888;11.052;2023-10-09T13:27:31;5.00;5.00;5.00;;
70740;Laerm;58330;51.888;11.052;2023-10-09T13:29:59;5.00;5.00;5.00;;
70740;Laerm;58330;51.888;11.052;2023-10-09T13:32:30;5.00;5.00;5.00;;
70740;Laerm;58330;51.888;11.052;2023-10-09T13:35:00;5.00;5.00;5.00;;
70740;Laerm;58330;51.888;11.052;2023-10-09T13:37:28;5.00;5.00;5.00;;
70740;Laerm;58330;51.888;11.052;2023-10-09T13:39:57;5.00;5.00;5.00;;
70740;Laerm;58330;51.888;11.052;2023-10-09T13:42:24;5.00;5.00;5.00;;
70740;Laerm;58330;51.888;11.052;2023-10-09T13:44:53;5.00;5.00;5.00;;
70740;Laerm;58330;51.888;11.052;2023-10-09T13:47:20;5.00;5.00;5.00;;
70740;Laerm;58330;51.888;11.052;2023-10-09T13:49:50;5.00;5.00;5.00;;
70740;Laerm;58330;51.888;11.052;2023-10-09T13:52:19;5.00;5.00;5.00;;
70740;Laerm;58330;51.888;11.052;2023-10-09T13:54:47;5.00;5.00;5.00;;
70740;Laerm;58330;51.888;11.052;2023-10-09T13:57:14;5.00;5.00;5.00;;
70740;Laerm;58330;51.888;11.052;2023-10-09T13:59:41;5.00;5.00;5.00;;
70740;Laerm;58330;51.888;11.052;2023-10-09T14:02:14;5.00;5.00;5.00;;
70740;Laerm;58330;51.888;11.052;2023-10-09T14:04:43;5.00;5.00;5.00;;
70740;Laerm;58330;51.888;11.052;2023-10-09T14:07:10;5.00;5.00;5.00;;
70740;Laerm;58330;51.888;11.052;2023-10-09T14:09:43;5.00;5.00;5.00;;
70740;Laerm;58330;51.888;11.052;2023-10-09T14:12:20;5.00;5.00;5.00;;
70740;Laerm;58330;51.888;11.052;2023-10-09T14:14:47;5.00;5.00;5.00;;
70740;Laerm;58330;51.888;11.052;2023-10-09T14:17:14;5.00;5.00;5.00;;
70740;Laerm;58330;51.888;11.052;2023-10-09T14:19:44;5.00;5.00;5.00;;
70740;Laerm;58330;51.888;11.052;2023-10-09T14:22:13;5.00;5.00;5.00;;
70740;Laerm;58330;51.888;11.052;2023-10-09T14:24:40;5.00;5.00;5.00;;
70740;Laerm;58330;51.888;11.052;2023-10-09T14:27:11;5.00;5.00;5.00;;
70740;Laerm;58330;51.888;11.052;2023-10-09T14:29:43;5.00;5.00;5.00;;
70740;Laerm;58330;51.888;11.052;2023-10-09T14:32:10;5.00;5.00;5.00;;
70740;Laerm;58330;51.888;11.052;2023-10-09T14:34:38;5.00;5.00;5.00;;
70740;Laerm;58330;51.888;11.052;2023-10-09T14:37:08;5.00;5.00;5.00;;
70740;Laerm;58330;51.888;11.052;2023-10-09T14:39:39;5.00;5.00;5.00;;
70740;Laerm;58330;51.888;11.052;2023-10-09T14:42:05;5.00;5.00;5.00;;
70740;Laerm;58330;51.888;11.052;2023-10-09T14:44:36;28.14;-324.78;64.44;;
70740;Laerm;58330;51.888;11.052;2023-10-09T14:47:03;5.00;5.00;5.00;;
70740;Laerm;58330;51.888;11.052;2023-10-09T14:49:30;5.00;5.00;5.00;;
70740;Laerm;58330;51.888;11.052;2023-10-09T14:52:00;5.00;5.00;5.00;;
70740;Laerm;58330;51.888;11.052;2023-10-09T14:54:26;5.00;5.00;5.00;;
70740;Laerm;58330;51.888;11.052;2023-10-09T14:56:53;5.00;5.00;5.00;;
70740;Laerm;58330;51.888;11.052;2023-10-09T14:59:21;5.00;5.00;5.00;;
70740;Laerm;58330;51.888;11.052;2023-10-09T15:01:49;5.00;5.00;5.00;;
70740;Laerm;58330;51.888;11.052;2023-10-09T15:04:18;62.96;5.00;96.14;;
70740;Laerm;58330;51.888;11.052;2023-10-09T15:06:45;27.85;26.48;29.19;;
70740;Laerm;58330;51.888;11.052;2023-10-09T15:09:14;52.16;26.45;87.20;;
70740;Laerm;58330;51.888;11.052;2023-10-09T15:11:47;73.03;26.68;104.30;;
70740;Laerm;58330;51.888;11.052;2023-10-09T15:14:13;27.87;26.75;29.05;;
70740;Laerm;58330;51.888;11.052;2023-10-09T15:16:41;60.30;26.69;91.32;;
70740;Laerm;58330;51.888;11.052;2023-10-09T15:19:09;87.39;26.66;110.63;;
70740;Laerm;58330;51.888;11.052;2023-10-09T15:21:36;75.36;26.52;101.07;;
70740;Laerm;58330;51.888;11.052;2023-10-09T15:24:09;78.41;26.43;108.80;;
70740;Laerm;58330;51.888;11.052;2023-10-09T15:26:37;80.26;26.68;104.92;;
70740;Laerm;58330;51.888;11.052;2023-10-09T15:29:05;68.17;26.77;97.65;;
70740;Laerm;58330;51.888;11.052;2023-10-09T15:31:32;49.51;17.26;85.72;;
70740;Laerm;58330;51.888;11.052;2023-10-09T15:33:58;67.28;26.47;102.60;;
70740;Laerm;58330;51.888;11.052;2023-10-09T15:36:26;71.97;26.70;101.05;;
70740;Laerm;58330;51.888;11.052;2023-10-09T15:38:57;58.35;26.79;89.00;;